sensor_id;sensor_type;location;lat;lon;timestamp;temperature;humidity
728;DHT22;347;48.780;9.158;2022-08-21T00:00:39;21.50;20.60
728;DHT22;347;48.780;9.158;2022-08-21T00:03:07;21.50;20.70
728;DHT22;347;48.780;9.158;2022-08-21T00:05:36;21.50;20.70
728;DHT22;347;48.780;9.158;2022-08-21T00:08:06;21.40;20.70
728;DHT22;347;48.780;9.158;2022-08-21T00:10:32;21.40;20.80
728;DHT22;347;48.780;9.158;2022-08-21T00:13:00;21.40;20.70
728;DHT22;347;48.780;9.158;2022-08-21T00:15:28;21.40;20.90
728;DHT22;347;48.780;9.158;2022-08-21T00:17:55;21.40;21.00
728;DHT22;347;48.780;9.158;2022-08-21T00:20:23;21.30;20.90
728;DHT22;347;48.780;9.158;2022-08-21T00:22:49;21.40;21.00
728;DHT22;347;48.780;9.158;2022-08-21T00:25:16;21.40;20.90
728;DHT22;347;48.780;9.158;2022-08-21T00:27:43;21.40;20.80
728;DHT22;347;48.780;9.158;2022-08-21T00:30:10;21.40;20.80
728;DHT22;347;48.780;9.158;2022-08-21T00:32:37;21.40;20.70
728;DHT22;347;48.780;9.158;2022-08-21T00:35:04;21.40;20.70
728;DHT22;347;48.780;9.158;2022-08-21T00:37:30;21.30;20.70
728;DHT22;347;48.780;9.158;2022-08-21T00:39:56;21.30;20.70
728;DHT22;347;48.780;9.158;2022-08-21T00:42:21;21.30;20.80
728;DHT22;347;48.780;9.158;2022-08-21T00:44:48;21.30;20.80
728;DHT22;347;48.780;9.158;2022-08-21T00:47:15;21.30;20.90
728;DHT22;347;48.780;9.158;2022-08-21T00:49:41;21.30;21.00
728;DHT22;347;48.780;9.158;2022-08-21T00:52:10;21.20;21.00
728;DHT22;347;48.780;9.158;2022-08-21T00:54:36;21.20;21.20
728;DHT22;347;48.780;9.158;2022-08-21T00:57:07;21.20;21.30
728;DHT22;347;48.780;9.158;2022-08-21T00:59:36;21.20;21.40
728;DHT22;347;48.780;9.158;2022-08-21T01:02:03;21.20;21.40
728;DHT22;347;48.780;9.158;2022-08-21T01:04:29;21.20;21.50
728;DHT22;347;48.780;9.158;2022-08-21T01:06:55;21.10;21.50
728;DHT22;347;48.780;9.158;2022-08-21T01:09:21;21.20;21.70
728;DHT22;347;48.780;9.158;2022-08-21T01:11:47;21.20;21.70
728;DHT22;347;48.780;9.158;2022-08-21T01:14:14;21.10;21.60
728;DHT22;347;48.780;9.158;2022-08-21T01:16:43;21.10;21.80
728;DHT22;347;48.780;9.158;2022-08-21T01:19:10;21.10;21.80
728;DHT22;347;48.780;9.158;2022-08-21T01:21:36;21.10;21.90
728;DHT22;347;48.780;9.158;2022-08-21T01:24:02;21.00;21.70
728;DHT22;347;48.780;9.158;2022-08-21T01:26:31;21.00;22.00
728;DHT22;347;48.780;9.158;2022-08-21T01:32:08;21.00;22.00
728;DHT22;347;48.780;9.158;2022-08-21T01:34:37;21.00;22.10
728;DHT22;347;48.780;9.158;2022-08-21T01:37:04;21.00;22.20
728;DHT22;347;48.780;9.158;2022-08-21T01:39:30;21.00;22.20
728;DHT22;347;48.780;9.158;2022-08-21T01:41:55;21.00;22.30
728;DHT22;347;48.780;9.158;2022-08-21T01:44:25;21.00;22.20
728;DHT22;347;48.780;9.158;2022-08-21T01:46:51;20.90;22.10
728;DHT22;347;48.780;9.158;2022-08-21T01:49:17;21.00;22.10
728;DHT22;347;48.780;9.158;2022-08-21T01:51:43;20.90;22.30
728;DHT22;347;48.780;9.158;2022-08-21T01:54:09;20.90;22.30
728;DHT22;347;48.780;9.158;2022-08-21T01:56:41;20.70;22.40
728;DHT22;347;48.780;9.158;2022-08-21T01:59:07;20.40;23.00
728;DHT22;347;48.780;9.158;2022-08-21T02:01:34;20.40;23.10
728;DHT22;347;48.780;9.158;2022-08-21T02:03:59;20.40;23.50
728;DHT22;347;48.780;9.158;2022-08-21T02:06:26;20.50;23.40
728;DHT22;347;48.780;9.158;2022-08-21T02:08:52;20.50;23.00
728;DHT22;347;48.780;9.158;2022-08-21T02:11:18;20.60;22.90
728;DHT22;347;48.780;9.158;2022-08-21T02:13:44;20.60;22.70
728;DHT22;347;48.780;9.158;2022-08-21T02:16:10;20.70;22.60
728;DHT22;347;48.780;9.158;2022-08-21T02:18:35;20.70;22.60
728;DHT22;347;48.780;9.158;2022-08-21T02:21:02;20.60;22.70
728;DHT22;347;48.780;9.158;2022-08-21T02:23:28;20.70;22.80
728;DHT22;347;48.780;9.158;2022-08-21T02:25:56;20.70;22.70
728;DHT22;347;48.780;9.158;2022-08-21T02:28:22;20.70;22.70
728;DHT22;347;48.780;9.158;2022-08-21T02:30:48;20.70;22.60
728;DHT22;347;48.780;9.158;2022-08-21T02:33:14;20.70;22.50
728;DHT22;347;48.780;9.158;2022-08-21T02:35:41;20.70;22.60
728;DHT22;347;48.780;9.158;2022-08-21T02:38:10;20.70;22.50
728;DHT22;347;48.780;9.158;2022-08-21T02:40:39;20.70;22.40
728;DHT22;347;48.780;9.158;2022-08-21T02:43:06;20.70;22.20
728;DHT22;347;48.780;9.158;2022-08-21T02:45:33;20.70;22.40
728;DHT22;347;48.780;9.158;2022-08-21T02:48:02;20.70;22.40
728;DHT22;347;48.780;9.158;2022-08-21T02:50:33;20.60;22.30
728;DHT22;347;48.780;9.158;2022-08-21T02:52:59;20.60;22.60
728;DHT22;347;48.780;9.158;2022-08-21T02:55:27;20.60;22.80
728;DHT22;347;48.780;9.158;2022-08-21T02:57:54;20.60;22.60
728;DHT22;347;48.780;9.158;2022-08-21T03:00:23;20.60;22.80
728;DHT22;347;48.780;9.158;2022-08-21T03:02:50;20.60;22.60
728;DHT22;347;48.780;9.158;2022-08-21T03:05:16;20.60;22.80
728;DHT22;347;48.780;9.158;2022-08-21T03:07:44;20.60;22.70
728;DHT22;347;48.780;9.158;2022-08-21T03:10:10;20.60;23.10
728;DHT22;347;48.780;9.158;2022-08-21T03:12:36;20.50;23.20
728;DHT22;347;48.780;9.158;2022-08-21T03:15:05;20.50;23.20
728;DHT22;347;48.780;9.158;2022-08-21T03:17:32;20.40;23.30
728;DHT22;347;48.780;9.158;2022-08-21T03:19:57;20.40;23.30
728;DHT22;347;48.780;9.158;2022-08-21T03:22:23;20.40;24.40
728;DHT22;347;48.780;9.158;2022-08-21T03:24:49;20.40;23.90
728;DHT22;347;48.780;9.158;2022-08-21T03:27:15;20.40;24.00
728;DHT22;347;48.780;9.158;2022-08-21T03:29:40;20.50;24.10
728;DHT22;347;48.780;9.158;2022-08-21T03:32:06;20.40;24.30
728;DHT22;347;48.780;9.158;2022-08-21T03:34:38;20.40;24.30
728;DHT22;347;48.780;9.158;2022-08-21T03:37:05;20.40;24.50
728;DHT22;347;48.780;9.158;2022-08-21T03:39:31;20.30;24.40
728;DHT22;347;48.780;9.158;2022-08-21T03:41:56;20.30;24.60
728;DHT22;347;48.780;9.158;2022-08-21T03:44:22;20.30;24.40
728;DHT22;347;48.780;9.158;2022-08-21T03:46:47;20.30;24.40
728;DHT22;347;48.780;9.158;2022-08-21T03:49:14;20.30;24.40
728;DHT22;347;48.780;9.158;2022-08-21T03:51:39;20.30;24.40
728;DHT22;347;48.780;9.158;2022-08-21T03:54:05;20.30;24.60
728;DHT22;347;48.780;9.158;2022-08-21T03:56:30;20.30;24.40
728;DHT22;347;48.780;9.158;2022-08-21T03:58:56;20.20;24.50
728;DHT22;347;48.780;9.158;2022-08-21T04:01:22;20.20;24.60
728;DHT22;347;48.780;9.158;2022-08-21T04:03:47;20.20;24.40
728;DHT22;347;48.780;9.158;2022-08-21T04:06:13;20.20;24.70
728;DHT22;347;48.780;9.158;2022-08-21T04:08:39;20.10;24.80
728;DHT22;347;48.780;9.158;2022-08-21T04:11:05;20.10;24.80
728;DHT22;347;48.780;9.158;2022-08-21T04:13:31;20.10;24.80
728;DHT22;347;48.780;9.158;2022-08-21T04:15:57;20.10;24.70
728;DHT22;347;48.780;9.158;2022-08-21T04:18:23;20.10;25.00
728;DHT22;347;48.780;9.158;2022-08-21T04:20:51;20.10;25.00
728;DHT22;347;48.780;9.158;2022-08-21T04:23:19;20.10;24.90
728;DHT22;347;48.780;9.158;2022-08-21T04:25:44;20.10;24.90
728;DHT22;347;48.780;9.158;2022-08-21T04:28:12;20.10;25.00
728;DHT22;347;48.780;9.158;2022-08-21T04:30:37;20.10;25.10
728;DHT22;347;48.780;9.158;2022-08-21T04:33:03;20.20;25.10
728;DHT22;347;48.780;9.158;2022-08-21T04:35:29;20.10;25.10
728;DHT22;347;48.780;9.158;2022-08-21T04:37:55;20.10;25.00
728;DHT22;347;48.780;9.158;2022-08-21T04:40:23;20.10;25.10
728;DHT22;347;48.780;9.158;2022-08-21T04:42:52;20.10;25.30
728;DHT22;347;48.780;9.158;2022-08-21T04:45:20;20.10;24.80
728;DHT22;347;48.780;9.158;2022-08-21T04:47:49;19.70;25.40
728;DHT22;347;48.780;9.158;2022-08-21T04:50:16;19.30;26.30
728;DHT22;347;48.780;9.158;2022-08-21T04:52:42;19.10;27.20
728;DHT22;347;48.780;9.158;2022-08-21T04:55:08;19.20;27.00
728;DHT22;347;48.780;9.158;2022-08-21T04:57:34;19.40;26.70
728;DHT22;347;48.780;9.158;2022-08-21T05:00:00;19.50;26.30
728;DHT22;347;48.780;9.158;2022-08-21T05:02:26;19.60;25.60
728;DHT22;347;48.780;9.158;2022-08-21T05:04:53;19.70;25.30
728;DHT22;347;48.780;9.158;2022-08-21T05:07:22;19.70;25.40
728;DHT22;347;48.780;9.158;2022-08-21T05:09:49;19.70;25.10
728;DHT22;347;48.780;9.158;2022-08-21T05:12:15;19.80;25.00
728;DHT22;347;48.780;9.158;2022-08-21T05:14:40;19.80;24.80
728;DHT22;347;48.780;9.158;2022-08-21T05:17:07;19.80;24.40
728;DHT22;347;48.780;9.158;2022-08-21T05:19:34;19.60;25.20
728;DHT22;347;48.780;9.158;2022-08-21T05:22:00;19.70;25.20
728;DHT22;347;48.780;9.158;2022-08-21T05:24:26;19.80;25.50
728;DHT22;347;48.780;9.158;2022-08-21T05:26:55;19.80;25.30
728;DHT22;347;48.780;9.158;2022-08-21T05:29:21;19.80;25.20
728;DHT22;347;48.780;9.158;2022-08-21T05:31:47;19.90;25.30
728;DHT22;347;48.780;9.158;2022-08-21T05:34:17;19.90;25.20
728;DHT22;347;48.780;9.158;2022-08-21T05:36:43;20.00;25.40
728;DHT22;347;48.780;9.158;2022-08-21T05:39:08;20.00;25.40
728;DHT22;347;48.780;9.158;2022-08-21T05:41:34;19.90;25.60
728;DHT22;347;48.780;9.158;2022-08-21T05:43:59;20.00;25.20
728;DHT22;347;48.780;9.158;2022-08-21T05:46:25;20.00;25.30
728;DHT22;347;48.780;9.158;2022-08-21T05:48:51;20.00;25.30
728;DHT22;347;48.780;9.158;2022-08-21T05:51:16;20.00;25.20
728;DHT22;347;48.780;9.158;2022-08-21T05:53:43;20.00;25.20
728;DHT22;347;48.780;9.158;2022-08-21T05:56:10;20.10;24.90
728;DHT22;347;48.780;9.158;2022-08-21T05:58:36;20.10;25.20
728;DHT22;347;48.780;9.158;2022-08-21T06:01:02;20.10;25.10
728;DHT22;347;48.780;9.158;2022-08-21T06:03:35;20.10;25.10
728;DHT22;347;48.780;9.158;2022-08-21T06:06:01;20.10;25.00
728;DHT22;347;48.780;9.158;2022-08-21T06:08:28;20.10;24.90
728;DHT22;347;48.780;9.158;2022-08-21T06:10:55;20.20;24.90
728;DHT22;347;48.780;9.158;2022-08-21T06:13:22;20.10;24.60
728;DHT22;347;48.780;9.158;2022-08-21T06:15:48;20.10;24.80
728;DHT22;347;48.780;9.158;2022-08-21T06:18:14;20.20;24.80
728;DHT22;347;48.780;9.158;2022-08-21T06:20:41;20.30;24.70
728;DHT22;347;48.780;9.158;2022-08-21T06:23:06;20.20;24.20
728;DHT22;347;48.780;9.158;2022-08-21T06:25:32;19.90;25.00
728;DHT22;347;48.780;9.158;2022-08-21T06:28:06;20.00;25.10
728;DHT22;347;48.780;9.158;2022-08-21T06:30:32;20.00;24.80
728;DHT22;347;48.780;9.158;2022-08-21T06:32:58;19.90;24.90
728;DHT22;347;48.780;9.158;2022-08-21T06:35:23;19.80;25.30
728;DHT22;347;48.780;9.158;2022-08-21T06:37:50;19.80;25.60
728;DHT22;347;48.780;9.158;2022-08-21T06:40:16;19.70;25.60
728;DHT22;347;48.780;9.158;2022-08-21T06:42:41;19.70;25.60
728;DHT22;347;48.780;9.158;2022-08-21T06:45:07;19.50;25.70
728;DHT22;347;48.780;9.158;2022-08-21T06:47:33;19.60;26.00
728;DHT22;347;48.780;9.158;2022-08-21T06:49:59;19.60;25.70
728;DHT22;347;48.780;9.158;2022-08-21T06:52:24;19.70;25.70
728;DHT22;347;48.780;9.158;2022-08-21T06:54:50;19.80;25.50
728;DHT22;347;48.780;9.158;2022-08-21T06:57:15;19.80;25.30
728;DHT22;347;48.780;9.158;2022-08-21T06:59:41;19.90;25.10
728;DHT22;347;48.780;9.158;2022-08-21T07:02:07;19.90;24.90
728;DHT22;347;48.780;9.158;2022-08-21T07:04:33;20.00;24.80
728;DHT22;347;48.780;9.158;2022-08-21T07:06:59;20.10;24.70
728;DHT22;347;48.780;9.158;2022-08-21T07:09:24;20.20;24.50
728;DHT22;347;48.780;9.158;2022-08-21T07:11:52;20.20;24.50
728;DHT22;347;48.780;9.158;2022-08-21T07:14:18;20.30;24.30
728;DHT22;347;48.780;9.158;2022-08-21T07:16:44;20.30;24.00
728;DHT22;347;48.780;9.158;2022-08-21T07:19:10;20.30;23.80
728;DHT22;347;48.780;9.158;2022-08-21T07:21:36;20.40;24.10
728;DHT22;347;48.780;9.158;2022-08-21T07:24:02;20.50;23.80
728;DHT22;347;48.780;9.158;2022-08-21T07:26:27;20.50;23.70
728;DHT22;347;48.780;9.158;2022-08-21T07:28:53;20.60;23.80
728;DHT22;347;48.780;9.158;2022-08-21T07:31:21;20.60;23.70
728;DHT22;347;48.780;9.158;2022-08-21T07:33:47;20.60;23.50
728;DHT22;347;48.780;9.158;2022-08-21T07:36:13;20.70;23.40
728;DHT22;347;48.780;9.158;2022-08-21T07:38:39;20.80;23.40
728;DHT22;347;48.780;9.158;2022-08-21T07:41:13;20.80;23.10
728;DHT22;347;48.780;9.158;2022-08-21T07:43:40;20.90;23.30
728;DHT22;347;48.780;9.158;2022-08-21T07:46:06;21.00;23.10
728;DHT22;347;48.780;9.158;2022-08-21T07:48:31;21.10;23.00
728;DHT22;347;48.780;9.158;2022-08-21T07:50:58;21.20;22.90
728;DHT22;347;48.780;9.158;2022-08-21T07:53:24;21.30;22.90
728;DHT22;347;48.780;9.158;2022-08-21T07:55:50;21.30;22.60
728;DHT22;347;48.780;9.158;2022-08-21T07:58:15;21.40;22.60
728;DHT22;347;48.780;9.158;2022-08-21T08:00:41;21.50;22.80
728;DHT22;347;48.780;9.158;2022-08-21T08:03:06;21.60;22.80
728;DHT22;347;48.780;9.158;2022-08-21T08:05:32;21.60;22.60
728;DHT22;347;48.780;9.158;2022-08-21T08:07:58;21.70;22.80
728;DHT22;347;48.780;9.158;2022-08-21T08:10:24;21.70;22.80
728;DHT22;347;48.780;9.158;2022-08-21T08:12:51;21.80;22.90
728;DHT22;347;48.780;9.158;2022-08-21T08:15:21;21.90;22.20
728;DHT22;347;48.780;9.158;2022-08-21T08:17:47;21.90;22.60
728;DHT22;347;48.780;9.158;2022-08-21T08:20:15;22.00;22.50
728;DHT22;347;48.780;9.158;2022-08-21T08:22:42;22.00;22.20
728;DHT22;347;48.780;9.158;2022-08-21T08:25:10;22.10;21.60
728;DHT22;347;48.780;9.158;2022-08-21T08:27:37;22.10;21.60
728;DHT22;347;48.780;9.158;2022-08-21T08:30:04;22.20;21.80
728;DHT22;347;48.780;9.158;2022-08-21T08:32:31;22.20;21.60
728;DHT22;347;48.780;9.158;2022-08-21T08:34:56;22.30;21.30
728;DHT22;347;48.780;9.158;2022-08-21T08:37:22;22.30;21.40
728;DHT22;347;48.780;9.158;2022-08-21T08:39:47;22.30;21.40
728;DHT22;347;48.780;9.158;2022-08-21T08:42:18;22.40;21.00
728;DHT22;347;48.780;9.158;2022-08-21T08:44:47;22.40;20.60
728;DHT22;347;48.780;9.158;2022-08-21T08:47:15;22.50;20.50
728;DHT22;347;48.780;9.158;2022-08-21T08:52:30;22.70;19.50
728;DHT22;347;48.780;9.158;2022-08-21T08:55:01;22.70;19.20
728;DHT22;347;48.780;9.158;2022-08-21T08:57:27;22.80;19.80
728;DHT22;347;48.780;9.158;2022-08-21T09:00:03;22.80;19.80
728;DHT22;347;48.780;9.158;2022-08-21T09:02:29;22.90;18.80
728;DHT22;347;48.780;9.158;2022-08-21T09:04:54;22.90;18.90
728;DHT22;347;48.780;9.158;2022-08-21T09:07:47;23.00;18.60
728;DHT22;347;48.780;9.158;2022-08-21T09:12:59;23.30;18.00
728;DHT22;347;48.780;9.158;2022-08-21T09:16:07;23.40;16.10
728;DHT22;347;48.780;9.158;2022-08-21T09:18:41;23.50;16.50
728;DHT22;347;48.780;9.158;2022-08-21T09:24:22;23.80;14.40
728;DHT22;347;48.780;9.158;2022-08-21T09:29:43;24.10;15.70
728;DHT22;347;48.780;9.158;2022-08-21T09:32:16;24.40;14.00
728;DHT22;347;48.780;9.158;2022-08-21T09:37:24;24.90;13.70
728;DHT22;347;48.780;9.158;2022-08-21T09:39:50;25.00;13.90
728;DHT22;347;48.780;9.158;2022-08-21T09:42:31;25.20;13.10
728;DHT22;347;48.780;9.158;2022-08-21T09:45:09;25.30;13.40
728;DHT22;347;48.780;9.158;2022-08-21T09:47:36;25.50;12.90
728;DHT22;347;48.780;9.158;2022-08-21T09:50:17;25.50;12.40
728;DHT22;347;48.780;9.158;2022-08-21T09:52:49;25.50;12.30
728;DHT22;347;48.780;9.158;2022-08-21T09:55:19;25.60;12.30
728;DHT22;347;48.780;9.158;2022-08-21T09:58:05;25.50;12.30
728;DHT22;347;48.780;9.158;2022-08-21T10:00:33;25.50;12.00
728;DHT22;347;48.780;9.158;2022-08-21T10:03:14;25.60;12.10
728;DHT22;347;48.780;9.158;2022-08-21T10:05:51;25.80;11.80
728;DHT22;347;48.780;9.158;2022-08-21T10:08:18;26.00;11.40
728;DHT22;347;48.780;9.158;2022-08-21T10:10:44;26.00;11.30
728;DHT22;347;48.780;9.158;2022-08-21T10:13:27;26.10;11.60
728;DHT22;347;48.780;9.158;2022-08-21T10:18:53;26.20;11.40
728;DHT22;347;48.780;9.158;2022-08-21T10:21:29;26.30;11.40
728;DHT22;347;48.780;9.158;2022-08-21T10:35:19;26.40;10.60
728;DHT22;347;48.780;9.158;2022-08-21T10:41:01;26.30;10.60
728;DHT22;347;48.780;9.158;2022-08-21T10:43:49;26.00;11.00
728;DHT22;347;48.780;9.158;2022-08-21T10:50:04;26.40;10.80
728;DHT22;347;48.780;9.158;2022-08-21T10:54:52;26.60;10.50
728;DHT22;347;48.780;9.158;2022-08-21T11:00:07;26.50;10.20
728;DHT22;347;48.780;9.158;2022-08-21T11:02:51;26.50;9.80
728;DHT22;347;48.780;9.158;2022-08-21T11:05:34;26.50;9.80
728;DHT22;347;48.780;9.158;2022-08-21T11:10:40;26.50;9.20
728;DHT22;347;48.780;9.158;2022-08-21T11:13:35;26.50;9.20
728;DHT22;347;48.780;9.158;2022-08-21T11:18:59;26.40;10.70
728;DHT22;347;48.780;9.158;2022-08-21T11:24:46;26.30;10.60
728;DHT22;347;48.780;9.158;2022-08-21T11:27:32;26.20;10.20
728;DHT22;347;48.780;9.158;2022-08-21T11:30:00;26.10;10.40
728;DHT22;347;48.780;9.158;2022-08-21T11:37:56;26.30;9.90
728;DHT22;347;48.780;9.158;2022-08-21T11:43:22;26.50;9.80
728;DHT22;347;48.780;9.158;2022-08-21T11:45:54;26.60;9.70
728;DHT22;347;48.780;9.158;2022-08-21T11:51:19;27.00;8.60
728;DHT22;347;48.780;9.158;2022-08-21T11:53:48;26.80;8.50
728;DHT22;347;48.780;9.158;2022-08-21T11:57:29;26.70;9.50
728;DHT22;347;48.780;9.158;2022-08-21T12:02:38;26.50;9.40
728;DHT22;347;48.780;9.158;2022-08-21T12:05:11;26.60;9.00
728;DHT22;347;48.780;9.158;2022-08-21T12:07:47;26.60;8.70
728;DHT22;347;48.780;9.158;2022-08-21T12:10:19;26.50;8.80
728;DHT22;347;48.780;9.158;2022-08-21T12:13:09;26.60;8.40
728;DHT22;347;48.780;9.158;2022-08-21T12:15:36;26.60;8.40
728;DHT22;347;48.780;9.158;2022-08-21T12:18:05;26.50;8.90
728;DHT22;347;48.780;9.158;2022-08-21T12:20:38;26.40;9.00
728;DHT22;347;48.780;9.158;2022-08-21T12:25:42;26.30;9.30
728;DHT22;347;48.780;9.158;2022-08-21T12:28:11;26.10;9.60
728;DHT22;347;48.780;9.158;2022-08-21T12:30:40;26.10;9.90
728;DHT22;347;48.780;9.158;2022-08-21T12:35:47;26.10;9.50
728;DHT22;347;48.780;9.158;2022-08-21T12:38:18;26.30;8.60
728;DHT22;347;48.780;9.158;2022-08-21T12:40:59;26.50;8.30
728;DHT22;347;48.780;9.158;2022-08-21T12:43:36;26.50;8.30
728;DHT22;347;48.780;9.158;2022-08-21T12:46:03;26.60;8.40
728;DHT22;347;48.780;9.158;2022-08-21T12:48:52;26.60;8.80
728;DHT22;347;48.780;9.158;2022-08-21T12:51:30;26.60;8.40
728;DHT22;347;48.780;9.158;2022-08-21T12:53:58;26.60;8.40
728;DHT22;347;48.780;9.158;2022-08-21T12:56:30;26.60;8.30
728;DHT22;347;48.780;9.158;2022-08-21T12:59:01;26.60;8.40
728;DHT22;347;48.780;9.158;2022-08-21T13:01:47;26.40;8.40
728;DHT22;347;48.780;9.158;2022-08-21T13:04:17;26.30;8.70
728;DHT22;347;48.780;9.158;2022-08-21T13:06:47;26.30;9.40
728;DHT22;347;48.780;9.158;2022-08-21T13:09:16;26.10;9.30
728;DHT22;347;48.780;9.158;2022-08-21T13:11:45;26.10;9.30
728;DHT22;347;48.780;9.158;2022-08-21T13:16:59;26.00;9.70
728;DHT22;347;48.780;9.158;2022-08-21T13:19:28;25.90;9.40
728;DHT22;347;48.780;9.158;2022-08-21T13:21:55;25.90;9.30
728;DHT22;347;48.780;9.158;2022-08-21T13:24:24;25.90;9.40
728;DHT22;347;48.780;9.158;2022-08-21T13:26:51;25.80;9.20
728;DHT22;347;48.780;9.158;2022-08-21T13:29:19;25.80;9.10
728;DHT22;347;48.780;9.158;2022-08-21T13:31:53;25.70;9.30
728;DHT22;347;48.780;9.158;2022-08-21T13:34:21;25.70;9.70
728;DHT22;347;48.780;9.158;2022-08-21T13:36:51;25.70;9.50
728;DHT22;347;48.780;9.158;2022-08-21T13:39:18;25.80;9.10
728;DHT22;347;48.780;9.158;2022-08-21T13:41:47;25.90;8.80
728;DHT22;347;48.780;9.158;2022-08-21T13:44:21;26.00;8.70
728;DHT22;347;48.780;9.158;2022-08-21T13:46:52;26.00;9.00
728;DHT22;347;48.780;9.158;2022-08-21T13:49:19;26.00;8.60
728;DHT22;347;48.780;9.158;2022-08-21T13:51:46;26.30;8.20
728;DHT22;347;48.780;9.158;2022-08-21T13:54:26;26.60;7.90
728;DHT22;347;48.780;9.158;2022-08-21T13:56:53;26.70;7.40
728;DHT22;347;48.780;9.158;2022-08-21T13:59:33;26.60;7.40
728;DHT22;347;48.780;9.158;2022-08-21T14:04:39;26.70;7.30
728;DHT22;347;48.780;9.158;2022-08-21T14:07:26;26.70;7.40
728;DHT22;347;48.780;9.158;2022-08-21T14:09:54;26.60;7.40
728;DHT22;347;48.780;9.158;2022-08-21T14:12:28;26.50;7.60
728;DHT22;347;48.780;9.158;2022-08-21T14:14:56;26.50;8.00
728;DHT22;347;48.780;9.158;2022-08-21T14:17:32;26.50;8.30
728;DHT22;347;48.780;9.158;2022-08-21T14:19:58;26.50;7.70
728;DHT22;347;48.780;9.158;2022-08-21T14:25:36;26.50;7.70
728;DHT22;347;48.780;9.158;2022-08-21T14:28:44;26.40;7.30
728;DHT22;347;48.780;9.158;2022-08-21T14:30:51;26.40;7.50
728;DHT22;347;48.780;9.158;2022-08-21T14:33:29;26.30;7.70
728;DHT22;347;48.780;9.158;2022-08-21T14:35:56;26.30;7.70
728;DHT22;347;48.780;9.158;2022-08-21T14:38:31;26.30;8.20
728;DHT22;347;48.780;9.158;2022-08-21T14:41:19;26.20;8.20
728;DHT22;347;48.780;9.158;2022-08-21T14:43:46;26.10;8.10
728;DHT22;347;48.780;9.158;2022-08-21T14:46:21;26.20;8.20
728;DHT22;347;48.780;9.158;2022-08-21T14:48:48;26.10;7.80
728;DHT22;347;48.780;9.158;2022-08-21T14:51:14;26.30;7.60
728;DHT22;347;48.780;9.158;2022-08-21T14:53:40;26.40;7.10
728;DHT22;347;48.780;9.158;2022-08-21T14:56:05;26.40;7.10
728;DHT22;347;48.780;9.158;2022-08-21T14:58:40;26.50;7.00
728;DHT22;347;48.780;9.158;2022-08-21T15:01:11;26.50;6.80
728;DHT22;347;48.780;9.158;2022-08-21T15:03:38;26.60;6.70
728;DHT22;347;48.780;9.158;2022-08-21T15:06:05;26.60;6.70
728;DHT22;347;48.780;9.158;2022-08-21T15:08:31;26.40;6.60
728;DHT22;347;48.780;9.158;2022-08-21T15:10:59;26.30;6.80
728;DHT22;347;48.780;9.158;2022-08-21T15:13:25;26.30;7.00
728;DHT22;347;48.780;9.158;2022-08-21T15:15:51;26.20;7.00
728;DHT22;347;48.780;9.158;2022-08-21T15:18:22;26.30;7.00
728;DHT22;347;48.780;9.158;2022-08-21T15:20:48;26.30;6.50
728;DHT22;347;48.780;9.158;2022-08-21T15:23:15;26.20;6.50
728;DHT22;347;48.780;9.158;2022-08-21T15:25:42;26.20;6.70
728;DHT22;347;48.780;9.158;2022-08-21T15:28:09;26.10;6.50
728;DHT22;347;48.780;9.158;2022-08-21T15:30:36;26.30;6.60
728;DHT22;347;48.780;9.158;2022-08-21T15:33:02;26.20;7.30
728;DHT22;347;48.780;9.158;2022-08-21T15:35:28;26.20;6.80
728;DHT22;347;48.780;9.158;2022-08-21T15:37:53;26.10;7.00
728;DHT22;347;48.780;9.158;2022-08-21T15:40:19;26.20;6.70
728;DHT22;347;48.780;9.158;2022-08-21T15:42:44;26.20;7.00
728;DHT22;347;48.780;9.158;2022-08-21T15:45:12;26.30;6.40
728;DHT22;347;48.780;9.158;2022-08-21T15:47:39;26.40;6.60
728;DHT22;347;48.780;9.158;2022-08-21T15:50:08;26.30;6.60
728;DHT22;347;48.780;9.158;2022-08-21T15:52:35;26.30;6.10
728;DHT22;347;48.780;9.158;2022-08-21T15:55:00;26.30;6.40
728;DHT22;347;48.780;9.158;2022-08-21T15:57:27;26.40;6.10
728;DHT22;347;48.780;9.158;2022-08-21T15:59:56;26.40;6.00
728;DHT22;347;48.780;9.158;2022-08-21T16:02:26;26.50;5.70
728;DHT22;347;48.780;9.158;2022-08-21T16:04:52;26.50;5.70
728;DHT22;347;48.780;9.158;2022-08-21T16:07:18;26.50;5.60
728;DHT22;347;48.780;9.158;2022-08-21T16:09:44;26.50;5.60
728;DHT22;347;48.780;9.158;2022-08-21T16:12:14;26.50;6.20
728;DHT22;347;48.780;9.158;2022-08-21T16:14:41;26.50;5.60
728;DHT22;347;48.780;9.158;2022-08-21T16:17:07;26.40;5.70
728;DHT22;347;48.780;9.158;2022-08-21T16:19:34;26.40;5.80
728;DHT22;347;48.780;9.158;2022-08-21T16:22:00;26.40;5.60
728;DHT22;347;48.780;9.158;2022-08-21T16:24:25;26.40;5.40
728;DHT22;347;48.780;9.158;2022-08-21T16:26:51;26.30;5.90
728;DHT22;347;48.780;9.158;2022-08-21T16:29:18;26.20;6.00
728;DHT22;347;48.780;9.158;2022-08-21T16:31:44;26.20;6.10
728;DHT22;347;48.780;9.158;2022-08-21T16:34:17;26.20;6.20
728;DHT22;347;48.780;9.158;2022-08-21T16:36:43;26.10;5.90
728;DHT22;347;48.780;9.158;2022-08-21T16:39:09;26.10;5.70
728;DHT22;347;48.780;9.158;2022-08-21T16:41:35;26.20;5.90
728;DHT22;347;48.780;9.158;2022-08-21T16:44:02;26.10;6.00
728;DHT22;347;48.780;9.158;2022-08-21T16:46:34;26.10;5.90
728;DHT22;347;48.780;9.158;2022-08-21T16:49:01;26.10;6.00
728;DHT22;347;48.780;9.158;2022-08-21T16:51:28;26.10;6.40
728;DHT22;347;48.780;9.158;2022-08-21T16:53:58;26.00;6.20
728;DHT22;347;48.780;9.158;2022-08-21T16:56:25;26.00;6.30
728;DHT22;347;48.780;9.158;2022-08-21T16:58:52;25.90;5.90
728;DHT22;347;48.780;9.158;2022-08-21T17:01:20;26.00;6.00
728;DHT22;347;48.780;9.158;2022-08-21T17:03:47;25.90;6.40
728;DHT22;347;48.780;9.158;2022-08-21T17:06:16;25.90;6.40
728;DHT22;347;48.780;9.158;2022-08-21T17:08:42;25.90;6.30
728;DHT22;347;48.780;9.158;2022-08-21T17:11:28;25.90;6.20
728;DHT22;347;48.780;9.158;2022-08-21T17:13:56;25.90;6.50
728;DHT22;347;48.780;9.158;2022-08-21T17:16:23;25.80;6.40
728;DHT22;347;48.780;9.158;2022-08-21T17:18:49;25.80;6.50
728;DHT22;347;48.780;9.158;2022-08-21T17:21:15;25.80;6.40
728;DHT22;347;48.780;9.158;2022-08-21T17:23:41;25.80;6.40
728;DHT22;347;48.780;9.158;2022-08-21T17:26:07;25.80;6.40
728;DHT22;347;48.780;9.158;2022-08-21T17:28:34;25.70;6.10
728;DHT22;347;48.780;9.158;2022-08-21T17:31:01;25.70;6.70
728;DHT22;347;48.780;9.158;2022-08-21T17:33:31;25.70;6.50
728;DHT22;347;48.780;9.158;2022-08-21T17:35:59;25.60;6.30
728;DHT22;347;48.780;9.158;2022-08-21T17:38:26;25.60;6.40
728;DHT22;347;48.780;9.158;2022-08-21T17:40:51;25.60;6.40
728;DHT22;347;48.780;9.158;2022-08-21T17:43:17;25.60;6.50
728;DHT22;347;48.780;9.158;2022-08-21T17:45:43;25.50;6.60
728;DHT22;347;48.780;9.158;2022-08-21T17:48:09;25.50;6.80
728;DHT22;347;48.780;9.158;2022-08-21T17:50:35;25.50;6.60
728;DHT22;347;48.780;9.158;2022-08-21T17:53:01;25.40;6.80
728;DHT22;347;48.780;9.158;2022-08-21T17:55:27;25.40;7.10
728;DHT22;347;48.780;9.158;2022-08-21T17:57:54;25.40;7.30
728;DHT22;347;48.780;9.158;2022-08-21T18:00:22;25.30;7.70
728;DHT22;347;48.780;9.158;2022-08-21T18:02:59;25.30;7.70
728;DHT22;347;48.780;9.158;2022-08-21T18:05:26;25.30;7.70
728;DHT22;347;48.780;9.158;2022-08-21T18:07:51;25.30;7.70
728;DHT22;347;48.780;9.158;2022-08-21T18:10:20;25.20;7.60